sensor_id;sensor_type;location;lat;lon;timestamp;temperature;humidity
212;DHT22;16228;48.800;9.002;2023-09-30T00:02:26;16.20;96.90
212;DHT22;16228;48.800;9.002;2023-09-30T00:04:54;16.20;96.90
212;DHT22;16228;48.800;9.002;2023-09-30T00:07:21;16.20;96.90
212;DHT22;16228;48.800;9.002;2023-09-30T00:09:48;16.20;96.90
212;DHT22;16228;48.800;9.002;2023-09-30T00:12:17;16.20;96.90
212;DHT22;16228;48.800;9.002;2023-09-30T00:14:44;16.10;96.90
212;DHT22;16228;48.800;9.002;2023-09-30T00:17:14;16.00;96.90
212;DHT22;16228;48.800;9.002;2023-09-30T00:19:41;16.00;96.90
212;DHT22;16228;48.800;9.002;2023-09-30T00:22:08;15.90;96.90
212;DHT22;16228;48.800;9.002;2023-09-30T00:24:35;15.80;96.90
212;DHT22;16228;48.800;9.002;2023-09-30T00:27:02;15.70;96.90
212;DHT22;16228;48.800;9.002;2023-09-30T00:29:30;15.70;96.90
212;DHT22;16228;48.800;9.002;2023-09-30T00:31:57;15.60;96.90
212;DHT22;16228;48.800;9.002;2023-09-30T00:34:24;15.60;96.90
212;DHT22;16228;48.800;9.002;2023-09-30T00:36:51;15.60;96.90
212;DHT22;16228;48.800;9.002;2023-09-30T00:39:18;15.60;96.90
212;DHT22;16228;48.800;9.002;2023-09-30T00:41:45;15.70;96.90
212;DHT22;16228;48.800;9.002;2023-09-30T00:44:12;15.80;96.90
212;DHT22;16228;48.800;9.002;2023-09-30T00:46:41;15.80;96.90
212;DHT22;16228;48.800;9.002;2023-09-30T00:49:09;15.90;96.90
212;DHT22;16228;48.800;9.002;2023-09-30T00:51:36;15.90;96.90
212;DHT22;16228;48.800;9.002;2023-09-30T00:54:04;16.00;96.90
212;DHT22;16228;48.800;9.002;2023-09-30T00:56:32;16.00;96.90
212;DHT22;16228;48.800;9.002;2023-09-30T00:58:59;16.10;96.90
212;DHT22;16228;48.800;9.002;2023-09-30T01:01:27;16.20;96.90
212;DHT22;16228;48.800;9.002;2023-09-30T01:03:56;16.10;96.90
212;DHT22;16228;48.800;9.002;2023-09-30T01:06:24;16.20;96.90
212;DHT22;16228;48.800;9.002;2023-09-30T01:08:52;16.10;96.90
212;DHT22;16228;48.800;9.002;2023-09-30T01:11:20;16.20;96.90
212;DHT22;16228;48.800;9.002;2023-09-30T01:13:47;16.20;96.90
212;DHT22;16228;48.800;9.002;2023-09-30T01:16:15;16.20;96.90
212;DHT22;16228;48.800;9.002;2023-09-30T01:18:42;16.20;96.90
212;DHT22;16228;48.800;9.002;2023-09-30T01:21:10;16.30;96.90
212;DHT22;16228;48.800;9.002;2023-09-30T01:23:39;16.40;96.90
212;DHT22;16228;48.800;9.002;2023-09-30T01:26:08;16.40;96.90
212;DHT22;16228;48.800;9.002;2023-09-30T01:28:36;16.40;96.90
212;DHT22;16228;48.800;9.002;2023-09-30T01:31:02;16.40;96.90
212;DHT22;16228;48.800;9.002;2023-09-30T01:33:30;16.40;96.90
212;DHT22;16228;48.800;9.002;2023-09-30T01:35:57;16.50;96.90
212;DHT22;16228;48.800;9.002;2023-09-30T01:38:25;16.50;96.90
212;DHT22;16228;48.800;9.002;2023-09-30T01:40:53;16.50;96.90
212;DHT22;16228;48.800;9.002;2023-09-30T01:43:20;16.50;96.90
212;DHT22;16228;48.800;9.002;2023-09-30T01:45:47;16.50;96.90
212;DHT22;16228;48.800;9.002;2023-09-30T01:48:14;16.60;96.90
212;DHT22;16228;48.800;9.002;2023-09-30T01:50:41;16.50;96.90
212;DHT22;16228;48.800;9.002;2023-09-30T01:53:08;16.50;96.90
212;DHT22;16228;48.800;9.002;2023-09-30T01:55:35;16.60;96.90
212;DHT22;16228;48.800;9.002;2023-09-30T01:58:04;16.50;96.90
212;DHT22;16228;48.800;9.002;2023-09-30T02:00:31;16.50;96.90
212;DHT22;16228;48.800;9.002;2023-09-30T02:03:00;16.50;96.90
212;DHT22;16228;48.800;9.002;2023-09-30T02:05:27;16.50;96.90
212;DHT22;16228;48.800;9.002;2023-09-30T02:07:54;16.60;96.90
212;DHT22;16228;48.800;9.002;2023-09-30T02:10:21;16.60;96.90
212;DHT22;16228;48.800;9.002;2023-09-30T02:12:48;16.60;96.90
212;DHT22;16228;48.800;9.002;2023-09-30T02:15:17;16.60;96.90
212;DHT22;16228;48.800;9.002;2023-09-30T02:17:44;16.50;96.90
212;DHT22;16228;48.800;9.002;2023-09-30T02:20:14;16.50;96.90
212;DHT22;16228;48.800;9.002;2023-09-30T02:22:45;16.50;96.90
212;DHT22;16228;48.800;9.002;2023-09-30T02:25:13;16.50;96.90
212;DHT22;16228;48.800;9.002;2023-09-30T02:27:40;16.50;96.90
212;DHT22;16228;48.800;9.002;2023-09-30T02:30:09;16.60;96.90
212;DHT22;16228;48.800;9.002;2023-09-30T02:32:39;16.60;96.90
212;DHT22;16228;48.800;9.002;2023-09-30T02:35:07;16.60;96.90
212;DHT22;16228;48.800;9.002;2023-09-30T02:37:36;16.60;96.90
212;DHT22;16228;48.800;9.002;2023-09-30T02:40:04;16.60;96.90
212;DHT22;16228;48.800;9.002;2023-09-30T02:42:35;16.60;96.90
212;DHT22;16228;48.800;9.002;2023-09-30T02:45:04;16.60;96.90
212;DHT22;16228;48.800;9.002;2023-09-30T02:47:31;16.50;96.90
212;DHT22;16228;48.800;9.002;2023-09-30T02:49:59;16.50;96.90
212;DHT22;16228;48.800;9.002;2023-09-30T02:52:26;16.50;96.90
212;DHT22;16228;48.800;9.002;2023-09-30T02:54:54;16.50;96.90
212;DHT22;16228;48.800;9.002;2023-09-30T02:57:22;16.40;96.90
212;DHT22;16228;48.800;9.002;2023-09-30T02:59:49;16.40;96.90
212;DHT22;16228;48.800;9.002;2023-09-30T03:02:17;16.30;96.90
212;DHT22;16228;48.800;9.002;2023-09-30T03:04:44;16.30;96.90
212;DHT22;16228;48.800;9.002;2023-09-30T03:07:14;16.30;96.90
212;DHT22;16228;48.800;9.002;2023-09-30T03:09:41;16.20;96.90
212;DHT22;16228;48.800;9.002;2023-09-30T03:12:08;16.20;96.90
212;DHT22;16228;48.800;9.002;2023-09-30T03:14:35;16.20;96.90
212;DHT22;16228;48.800;9.002;2023-09-30T03:17:02;16.20;96.90
212;DHT22;16228;48.800;9.002;2023-09-30T03:19:30;16.10;96.90
212;DHT22;16228;48.800;9.002;2023-09-30T03:21:57;16.20;96.90
212;DHT22;16228;48.800;9.002;2023-09-30T03:24:25;16.20;96.90
212;DHT22;16228;48.800;9.002;2023-09-30T03:26:52;16.30;96.90
212;DHT22;16228;48.800;9.002;2023-09-30T03:29:19;16.20;96.90
212;DHT22;16228;48.800;9.002;2023-09-30T03:31:47;16.30;96.90
212;DHT22;16228;48.800;9.002;2023-09-30T03:34:14;16.30;96.90
212;DHT22;16228;48.800;9.002;2023-09-30T03:36:42;16.20;96.90
212;DHT22;16228;48.800;9.002;2023-09-30T03:39:09;16.20;96.90
212;DHT22;16228;48.800;9.002;2023-09-30T03:41:42;16.10;96.90
212;DHT22;16228;48.800;9.002;2023-09-30T03:44:09;16.10;96.90
212;DHT22;16228;48.800;9.002;2023-09-30T03:46:36;16.10;96.90
212;DHT22;16228;48.800;9.002;2023-09-30T03:49:03;16.10;96.90
212;DHT22;16228;48.800;9.002;2023-09-30T03:51:30;16.10;96.90
212;DHT22;16228;48.800;9.002;2023-09-30T03:53:57;16.10;96.90
212;DHT22;16228;48.800;9.002;2023-09-30T03:56:24;16.10;96.90
212;DHT22;16228;48.800;9.002;2023-09-30T03:58:52;16.10;96.90
212;DHT22;16228;48.800;9.002;2023-09-30T04:01:19;16.10;96.90
212;DHT22;16228;48.800;9.002;2023-09-30T04:03:46;16.10;96.90
212;DHT22;16228;48.800;9.002;2023-09-30T04:06:13;16.10;96.90
212;DHT22;16228;48.800;9.002;2023-09-30T04:08:40;16.10;96.90
212;DHT22;16228;48.800;9.002;2023-09-30T04:11:09;16.10;96.90
212;DHT22;16228;48.800;9.002;2023-09-30T04:13:42;16.00;96.90
212;DHT22;16228;48.800;9.002;2023-09-30T04:16:11;16.10;96.90
212;DHT22;16228;48.800;9.002;2023-09-30T04:18:38;16.10;96.90
212;DHT22;16228;48.800;9.002;2023-09-30T04:21:07;16.10;96.90
212;DHT22;16228;48.800;9.002;2023-09-30T04:23:33;16.10;96.90
212;DHT22;16228;48.800;9.002;2023-09-30T04:26:02;16.00;96.90
212;DHT22;16228;48.800;9.002;2023-09-30T04:28:30;16.00;96.90
212;DHT22;16228;48.800;9.002;2023-09-30T04:30:59;16.00;96.90
212;DHT22;16228;48.800;9.002;2023-09-30T04:33:29;16.00;96.90
212;DHT22;16228;48.800;9.002;2023-09-30T04:35:56;15.90;96.90
212;DHT22;16228;48.800;9.002;2023-09-30T04:38:23;16.00;96.90
212;DHT22;16228;48.800;9.002;2023-09-30T04:40:51;16.00;96.90
212;DHT22;16228;48.800;9.002;2023-09-30T04:43:19;15.90;96.90
212;DHT22;16228;48.800;9.002;2023-09-30T04:45:47;15.90;96.90
212;DHT22;16228;48.800;9.002;2023-09-30T04:48:15;15.90;96.90
212;DHT22;16228;48.800;9.002;2023-09-30T04:50:43;15.90;96.90
212;DHT22;16228;48.800;9.002;2023-09-30T04:53:11;15.90;96.90
212;DHT22;16228;48.800;9.002;2023-09-30T04:55:38;15.90;96.90
212;DHT22;16228;48.800;9.002;2023-09-30T04:58:05;15.90;96.90
212;DHT22;16228;48.800;9.002;2023-09-30T05:00:32;15.90;96.90
212;DHT22;16228;48.800;9.002;2023-09-30T05:03:00;15.90;96.90
212;DHT22;16228;48.800;9.002;2023-09-30T05:05:27;15.90;96.90
212;DHT22;16228;48.800;9.002;2023-09-30T05:07:56;15.90;96.90
212;DHT22;16228;48.800;9.002;2023-09-30T05:10:24;15.80;96.90
212;DHT22;16228;48.800;9.002;2023-09-30T05:12:51;15.90;96.90
212;DHT22;16228;48.800;9.002;2023-09-30T05:15:20;15.80;96.90
212;DHT22;16228;48.800;9.002;2023-09-30T05:17:49;15.80;96.90
212;DHT22;16228;48.800;9.002;2023-09-30T05:20:16;15.80;96.90
212;DHT22;16228;48.800;9.002;2023-09-30T05:22:44;15.70;96.90
212;DHT22;16228;48.800;9.002;2023-09-30T05:25:13;15.70;96.90
212;DHT22;16228;48.800;9.002;2023-09-30T05:27:41;15.60;96.90
212;DHT22;16228;48.800;9.002;2023-09-30T05:30:09;15.50;96.90
212;DHT22;16228;48.800;9.002;2023-09-30T05:32:37;15.50;96.90
212;DHT22;16228;48.800;9.002;2023-09-30T05:35:05;15.40;96.90
212;DHT22;16228;48.800;9.002;2023-09-30T05:37:39;15.40;96.90
212;DHT22;16228;48.800;9.002;2023-09-30T05:40:07;15.20;96.90
212;DHT22;16228;48.800;9.002;2023-09-30T05:42:44;15.20;96.90
212;DHT22;16228;48.800;9.002;2023-09-30T05:45:11;15.10;96.90
212;DHT22;16228;48.800;9.002;2023-09-30T05:47:39;15.10;96.90
212;DHT22;16228;48.800;9.002;2023-09-30T05:50:07;15.10;96.90
212;DHT22;16228;48.800;9.002;2023-09-30T05:52:35;15.00;96.90
212;DHT22;16228;48.800;9.002;2023-09-30T05:55:03;15.00;96.90
212;DHT22;16228;48.800;9.002;2023-09-30T05:57:30;15.10;96.90
212;DHT22;16228;48.800;9.002;2023-09-30T05:59:58;15.10;96.90
212;DHT22;16228;48.800;9.002;2023-09-30T06:02:25;15.20;96.90
212;DHT22;16228;48.800;9.002;2023-09-30T06:04:52;15.30;96.90
212;DHT22;16228;48.800;9.002;2023-09-30T06:07:20;15.30;96.90
212;DHT22;16228;48.800;9.002;2023-09-30T06:09:47;15.40;96.90
212;DHT22;16228;48.800;9.002;2023-09-30T06:12:15;15.40;96.90
212;DHT22;16228;48.800;9.002;2023-09-30T06:14:42;15.40;96.90
212;DHT22;16228;48.800;9.002;2023-09-30T06:17:10;15.40;96.90
212;DHT22;16228;48.800;9.002;2023-09-30T06:19:37;15.50;96.90
212;DHT22;16228;48.800;9.002;2023-09-30T06:22:04;15.50;96.90
212;DHT22;16228;48.800;9.002;2023-09-30T06:24:31;15.60;96.90
212;DHT22;16228;48.800;9.002;2023-09-30T06:26:58;15.70;96.90
212;DHT22;16228;48.800;9.002;2023-09-30T06:29:25;15.80;96.90
212;DHT22;16228;48.800;9.002;2023-09-30T06:31:52;15.90;96.90
212;DHT22;16228;48.800;9.002;2023-09-30T06:34:20;16.00;96.90
212;DHT22;16228;48.800;9.002;2023-09-30T06:36:47;16.10;96.90
212;DHT22;16228;48.800;9.002;2023-09-30T06:39:15;16.10;96.90
212;DHT22;16228;48.800;9.002;2023-09-30T06:41:41;16.20;96.90
212;DHT22;16228;48.800;9.002;2023-09-30T06:44:09;16.30;96.90
212;DHT22;16228;48.800;9.002;2023-09-30T06:46:36;16.40;96.90
212;DHT22;16228;48.800;9.002;2023-09-30T06:49:03;16.40;96.90
212;DHT22;16228;48.800;9.002;2023-09-30T06:51:31;16.60;96.90
212;DHT22;16228;48.800;9.002;2023-09-30T06:53:58;16.80;96.90
212;DHT22;16228;48.800;9.002;2023-09-30T06:56:26;17.00;96.90
212;DHT22;16228;48.800;9.002;2023-09-30T06:58:53;17.20;96.90
212;DHT22;16228;48.800;9.002;2023-09-30T07:01:20;17.40;96.90
212;DHT22;16228;48.800;9.002;2023-09-30T07:03:47;17.40;96.90
212;DHT22;16228;48.800;9.002;2023-09-30T07:06:22;17.40;96.90
212;DHT22;16228;48.800;9.002;2023-09-30T07:08:51;17.40;96.90
212;DHT22;16228;48.800;9.002;2023-09-30T07:11:26;17.50;96.90
212;DHT22;16228;48.800;9.002;2023-09-30T07:13:53;17.50;96.90
212;DHT22;16228;48.800;9.002;2023-09-30T07:16:20;17.60;96.90
212;DHT22;16228;48.800;9.002;2023-09-30T07:18:47;17.70;96.90
212;DHT22;16228;48.800;9.002;2023-09-30T07:21:16;17.90;96.90
212;DHT22;16228;48.800;9.002;2023-09-30T07:23:43;18.00;96.90
212;DHT22;16228;48.800;9.002;2023-09-30T07:26:11;18.30;96.90
212;DHT22;16228;48.800;9.002;2023-09-30T07:28:38;18.30;96.90
212;DHT22;16228;48.800;9.002;2023-09-30T07:31:05;18.40;96.90
212;DHT22;16228;48.800;9.002;2023-09-30T07:33:32;18.60;96.90
212;DHT22;16228;48.800;9.002;2023-09-30T07:35:59;18.60;96.90
212;DHT22;16228;48.800;9.002;2023-09-30T07:38:26;18.60;96.90
212;DHT22;16228;48.800;9.002;2023-09-30T07:40:53;18.50;96.90
212;DHT22;16228;48.800;9.002;2023-09-30T07:43:21;18.60;96.90
212;DHT22;16228;48.800;9.002;2023-09-30T07:45:48;18.80;96.90
212;DHT22;16228;48.800;9.002;2023-09-30T07:48:15;19.00;96.90
212;DHT22;16228;48.800;9.002;2023-09-30T07:50:42;19.20;96.90
212;DHT22;16228;48.800;9.002;2023-09-30T07:53:09;19.40;96.90
212;DHT22;16228;48.800;9.002;2023-09-30T07:55:37;19.60;96.90
212;DHT22;16228;48.800;9.002;2023-09-30T07:58:05;19.50;96.90
212;DHT22;16228;48.800;9.002;2023-09-30T08:00:35;19.50;96.90
212;DHT22;16228;48.800;9.002;2023-09-30T08:03:02;19.60;96.90
212;DHT22;16228;48.800;9.002;2023-09-30T08:05:29;19.60;96.90
212;DHT22;16228;48.800;9.002;2023-09-30T08:07:57;19.70;96.90
212;DHT22;16228;48.800;9.002;2023-09-30T08:10:24;19.70;96.90
212;DHT22;16228;48.800;9.002;2023-09-30T08:12:51;20.00;96.90
212;DHT22;16228;48.800;9.002;2023-09-30T08:15:17;20.10;96.90
212;DHT22;16228;48.800;9.002;2023-09-30T08:17:45;20.30;96.90
212;DHT22;16228;48.800;9.002;2023-09-30T08:20:12;20.40;96.90
212;DHT22;16228;48.800;9.002;2023-09-30T08:22:40;20.60;96.90
212;DHT22;16228;48.800;9.002;2023-09-30T08:25:08;20.80;96.90
212;DHT22;16228;48.800;9.002;2023-09-30T08:27:36;21.00;96.90
212;DHT22;16228;48.800;9.002;2023-09-30T08:30:05;21.10;96.90
212;DHT22;16228;48.800;9.002;2023-09-30T08:32:33;21.20;96.90
212;DHT22;16228;48.800;9.002;2023-09-30T08:35:02;21.10;96.90
212;DHT22;16228;48.800;9.002;2023-09-30T08:37:29;21.00;96.90
212;DHT22;16228;48.800;9.002;2023-09-30T08:39:57;20.80;96.90
212;DHT22;16228;48.800;9.002;2023-09-30T08:42:24;20.80;96.90
212;DHT22;16228;48.800;9.002;2023-09-30T08:44:55;20.90;96.90
212;DHT22;16228;48.800;9.002;2023-09-30T08:47:25;21.10;96.90
212;DHT22;16228;48.800;9.002;2023-09-30T08:49:53;21.90;96.90
212;DHT22;16228;48.800;9.002;2023-09-30T08:52:24;23.00;96.90
212;DHT22;16228;48.800;9.002;2023-09-30T08:54:53;23.80;96.90
212;DHT22;16228;48.800;9.002;2023-09-30T08:57:20;24.00;95.40
212;DHT22;16228;48.800;9.002;2023-09-30T08:59:48;24.00;96.90
212;DHT22;16228;48.800;9.002;2023-09-30T09:02:16;24.30;96.30
212;DHT22;16228;48.800;9.002;2023-09-30T09:04:44;24.80;92.20
212;DHT22;16228;48.800;9.002;2023-09-30T09:07:12;25.90;92.90
212;DHT22;16228;48.800;9.002;2023-09-30T09:09:41;28.10;89.20
212;DHT22;16228;48.800;9.002;2023-09-30T09:12:19;28.20;89.30
212;DHT22;16228;48.800;9.002;2023-09-30T09:14:46;29.20;85.60
212;DHT22;16228;48.800;9.002;2023-09-30T09:17:13;30.20;81.00
212;DHT22;16228;48.800;9.002;2023-09-30T09:19:41;31.00;81.10
212;DHT22;16228;48.800;9.002;2023-09-30T09:22:08;31.60;78.50
212;DHT22;16228;48.800;9.002;2023-09-30T09:24:37;31.90;76.70
212;DHT22;16228;48.800;9.002;2023-09-30T09:27:06;32.00;77.40
212;DHT22;16228;48.800;9.002;2023-09-30T09:29:34;32.30;75.30
212;DHT22;16228;48.800;9.002;2023-09-30T09:32:09;32.30;75.40
212;DHT22;16228;48.800;9.002;2023-09-30T09:34:36;32.50;72.20
212;DHT22;16228;48.800;9.002;2023-09-30T09:37:14;33.00;73.80
212;DHT22;16228;48.800;9.002;2023-09-30T09:39:49;33.50;73.80
212;DHT22;16228;48.800;9.002;2023-09-30T09:42:26;33.70;70.60
212;DHT22;16228;48.800;9.002;2023-09-30T09:44:55;34.00;68.50
212;DHT22;16228;48.800;9.002;2023-09-30T09:47:24;34.00;71.80
212;DHT22;16228;48.800;9.002;2023-09-30T09:49:51;33.80;71.20
212;DHT22;16228;48.800;9.002;2023-09-30T09:52:21;33.50;71.50
212;DHT22;16228;48.800;9.002;2023-09-30T09:54:48;33.80;70.50
212;DHT22;16228;48.800;9.002;2023-09-30T09:57:17;34.70;69.80
212;DHT22;16228;48.800;9.002;2023-09-30T09:59:46;35.20;69.60
212;DHT22;16228;48.800;9.002;2023-09-30T10:02:15;35.60;68.00
212;DHT22;16228;48.800;9.002;2023-09-30T10:04:44;35.00;66.30
212;DHT22;16228;48.800;9.002;2023-09-30T10:07:14;34.10;66.10
212;DHT22;16228;48.800;9.002;2023-09-30T10:09:47;32.20;69.30
212;DHT22;16228;48.800;9.002;2023-09-30T10:12:17;30.30;72.10
212;DHT22;16228;48.800;9.002;2023-09-30T10:14:46;28.80;76.80
212;DHT22;16228;48.800;9.002;2023-09-30T10:17:13;27.70;78.20
212;DHT22;16228;48.800;9.002;2023-09-30T10:20:03;26.80;81.30
212;DHT22;16228;48.800;9.002;2023-09-30T10:22:32;26.30;83.50
212;DHT22;16228;48.800;9.002;2023-09-30T10:24:59;26.00;85.60
212;DHT22;16228;48.800;9.002;2023-09-30T10:27:36;25.90;84.80
212;DHT22;16228;48.800;9.002;2023-09-30T10:30:11;25.80;84.00
212;DHT22;16228;48.800;9.002;2023-09-30T10:33:10;26.30;88.40
212;DHT22;16228;48.800;9.002;2023-09-30T10:35:48;27.30;82.90
212;DHT22;16228;48.800;9.002;2023-09-30T10:38:37;28.10;82.10
212;DHT22;16228;48.800;9.002;2023-09-30T10:41:07;28.60;78.40
212;DHT22;16228;48.800;9.002;2023-09-30T10:43:35;28.50;78.30
212;DHT22;16228;48.800;9.002;2023-09-30T10:46:04;28.20;80.90
212;DHT22;16228;48.800;9.002;2023-09-30T10:48:51;28.00;81.90
212;DHT22;16228;48.800;9.002;2023-09-30T10:51:19;28.60;83.10
212;DHT22;16228;48.800;9.002;2023-09-30T10:53:49;29.90;80.90
212;DHT22;16228;48.800;9.002;2023-09-30T10:56:19;30.80;77.70
212;DHT22;16228;48.800;9.002;2023-09-30T10:58:47;30.80;75.40
212;DHT22;16228;48.800;9.002;2023-09-30T11:01:17;29.60;73.50
212;DHT22;16228;48.800;9.002;2023-09-30T11:03:46;29.10;75.80
212;DHT22;16228;48.800;9.002;2023-09-30T11:06:16;29.70;78.20
212;DHT22;16228;48.800;9.002;2023-09-30T11:08:50;30.60;75.60
212;DHT22;16228;48.800;9.002;2023-09-30T11:11:17;31.50;72.30
212;DHT22;16228;48.800;9.002;2023-09-30T11:13:44;32.20;73.20
212;DHT22;16228;48.800;9.002;2023-09-30T11:16:12;32.80;70.30
212;DHT22;16228;48.800;9.002;2023-09-30T11:18:40;33.40;69.90
212;DHT22;16228;48.800;9.002;2023-09-30T11:21:08;33.10;68.30
212;DHT22;16228;48.800;9.002;2023-09-30T11:23:36;33.10;67.10
212;DHT22;16228;48.800;9.002;2023-09-30T11:26:04;33.70;69.20
212;DHT22;16228;48.800;9.002;2023-09-30T11:28:39;33.70;68.30
212;DHT22;16228;48.800;9.002;2023-09-30T11:31:08;34.20;66.10
212;DHT22;16228;48.800;9.002;2023-09-30T11:33:50;34.60;66.00
212;DHT22;16228;48.800;9.002;2023-09-30T11:36:19;34.40;63.70
212;DHT22;16228;48.800;9.002;2023-09-30T11:38:47;34.30;63.90
212;DHT22;16228;48.800;9.002;2023-09-30T11:41:15;34.80;66.40
212;DHT22;16228;48.800;9.002;2023-09-30T11:44:01;34.60;64.70
212;DHT22;16228;48.800;9.002;2023-09-30T11:46:31;34.40;68.00
212;DHT22;16228;48.800;9.002;2023-09-30T11:49:01;34.40;64.70
212;DHT22;16228;48.800;9.002;2023-09-30T11:51:29;34.50;63.30
212;DHT22;16228;48.800;9.002;2023-09-30T11:53:57;34.40;66.20
212;DHT22;16228;48.800;9.002;2023-09-30T11:56:24;33.80;66.00
212;DHT22;16228;48.800;9.002;2023-09-30T11:58:55;33.50;64.70
212;DHT22;16228;48.800;9.002;2023-09-30T12:01:24;33.10;68.00
212;DHT22;16228;48.800;9.002;2023-09-30T12:03:52;33.10;64.70
212;DHT22;16228;48.800;9.002;2023-09-30T12:06:22;32.30;66.00
212;DHT22;16228;48.800;9.002;2023-09-30T12:08:49;31.20;68.60
212;DHT22;16228;48.800;9.002;2023-09-30T12:11:17;29.90;71.10
212;DHT22;16228;48.800;9.002;2023-09-30T12:13:44;28.70;73.50
212;DHT22;16228;48.800;9.002;2023-09-30T12:16:14;27.70;76.80
212;DHT22;16228;48.800;9.002;2023-09-30T12:18:41;26.90;78.70
212;DHT22;16228;48.800;9.002;2023-09-30T12:21:10;26.30;81.60
212;DHT22;16228;48.800;9.002;2023-09-30T12:23:38;25.90;81.20
212;DHT22;16228;48.800;9.002;2023-09-30T12:26:05;25.80;82.60
212;DHT22;16228;48.800;9.002;2023-09-30T12:28:34;25.90;83.60
212;DHT22;16228;48.800;9.002;2023-09-30T12:31:01;26.40;83.30
212;DHT22;16228;48.800;9.002;2023-09-30T12:33:29;27.60;81.10
212;DHT22;16228;48.800;9.002;2023-09-30T12:35:57;28.50;77.40
212;DHT22;16228;48.800;9.002;2023-09-30T12:38:24;29.20;78.60
212;DHT22;16228;48.800;9.002;2023-09-30T12:40:54;30.10;76.20
212;DHT22;16228;48.800;9.002;2023-09-30T12:43:21;30.30;73.80
212;DHT22;16228;48.800;9.002;2023-09-30T12:45:48;30.70;74.60
212;DHT22;16228;48.800;9.002;2023-09-30T12:48:15;31.00;71.70
212;DHT22;16228;48.800;9.002;2023-09-30T12:50:43;31.20;69.90
212;DHT22;16228;48.800;9.002;2023-09-30T12:53:10;31.00;71.70
212;DHT22;16228;48.800;9.002;2023-09-30T12:55:37;30.60;72.90
212;DHT22;16228;48.800;9.002;2023-09-30T12:58:05;30.20;73.90
212;DHT22;16228;48.800;9.002;2023-09-30T13:00:34;29.30;73.20
212;DHT22;16228;48.800;9.002;2023-09-30T13:03:02;28.50;77.80
212;DHT22;16228;48.800;9.002;2023-09-30T13:05:29;27.70;79.30
212;DHT22;16228;48.800;9.002;2023-09-30T13:07:56;26.90;81.00
212;DHT22;16228;48.800;9.002;2023-09-30T13:10:24;26.50;81.50
212;DHT22;16228;48.800;9.002;2023-09-30T13:12:51;26.40;84.60
212;DHT22;16228;48.800;9.002;2023-09-30T13:15:21;26.30;84.30
212;DHT22;16228;48.800;9.002;2023-09-30T13:17:50;25.90;85.90
212;DHT22;16228;48.800;9.002;2023-09-30T13:20:17;25.50;87.70
212;DHT22;16228;48.800;9.002;2023-09-30T13:22:44;25.20;86.30
212;DHT22;16228;48.800;9.002;2023-09-30T13:25:11;25.60;85.70
212;DHT22;16228;48.800;9.002;2023-09-30T13:27:39;26.20;81.20
212;DHT22;16228;48.800;9.002;2023-09-30T13:30:07;26.90;80.30
212;DHT22;16228;48.800;9.002;2023-09-30T13:32:36;27.60;74.90
212;DHT22;16228;48.800;9.002;2023-09-30T13:35:03;28.10;77.00
212;DHT22;16228;48.800;9.002;2023-09-30T13:37:31;28.40;75.50
212;DHT22;16228;48.800;9.002;2023-09-30T13:39:59;28.10;74.20
212;DHT22;16228;48.800;9.002;2023-09-30T13:42:26;28.00;77.30
212;DHT22;16228;48.800;9.002;2023-09-30T13:44:52;27.90;75.20
212;DHT22;16228;48.800;9.002;2023-09-30T13:47:19;27.90;77.30
212;DHT22;16228;48.800;9.002;2023-09-30T13:49:49;27.70;75.90
212;DHT22;16228;48.800;9.002;2023-09-30T13:52:16;27.20;76.60
212;DHT22;16228;48.800;9.002;2023-09-30T13:54:44;26.90;80.20
212;DHT22;16228;48.800;9.002;2023-09-30T13:57:11;26.70;81.70
212;DHT22;16228;48.800;9.002;2023-09-30T13:59:39;26.10;80.90
212;DHT22;16228;48.800;9.002;2023-09-30T14:02:07;25.50;80.60
212;DHT22;16228;48.800;9.002;2023-09-30T14:04:34;25.10;82.30
212;DHT22;16228;48.800;9.002;2023-09-30T14:07:03;25.00;84.50
212;DHT22;16228;48.800;9.002;2023-09-30T14:09:31;24.90;85.50
212;DHT22;16228;48.800;9.002;2023-09-30T14:11:58;24.90;83.90
212;DHT22;16228;48.800;9.002;2023-09-30T14:14:25;24.50;83.50
212;DHT22;16228;48.800;9.002;2023-09-30T14:16:52;24.20;85.60
212;DHT22;16228;48.800;9.002;2023-09-30T14:19:20;24.00;87.30
212;DHT22;16228;48.800;9.002;2023-09-30T14:21:47;23.90;87.10
212;DHT22;16228;48.800;9.002;2023-09-30T14:24:15;23.80;85.70
212;DHT22;16228;48.800;9.002;2023-09-30T14:26:42;23.60;88.90
212;DHT22;16228;48.800;9.002;2023-09-30T14:29:10;23.60;89.40
212;DHT22;16228;48.800;9.002;2023-09-30T14:31:38;23.50;89.10
212;DHT22;16228;48.800;9.002;2023-09-30T14:34:05;23.30;86.00
212;DHT22;16228;48.800;9.002;2023-09-30T14:36:32;23.20;88.40
212;DHT22;16228;48.800;9.002;2023-09-30T14:38:59;23.10;89.40
212;DHT22;16228;48.800;9.002;2023-09-30T14:41:27;23.00;87.70
212;DHT22;16228;48.800;9.002;2023-09-30T14:43:54;22.90;88.40
212;DHT22;16228;48.800;9.002;2023-09-30T14:46:21;22.90;90.60
212;DHT22;16228;48.800;9.002;2023-09-30T14:48:48;22.80;87.20
212;DHT22;16228;48.800;9.002;2023-09-30T14:51:15;22.80;88.00
212;DHT22;16228;48.800;9.002;2023-09-30T14:53:42;22.90;89.20
212;DHT22;16228;48.800;9.002;2023-09-30T14:56:15;22.90;88.10
212;DHT22;16228;48.800;9.002;2023-09-30T14:58:44;22.90;90.00
212;DHT22;16228;48.800;9.002;2023-09-30T15:01:11;22.90;90.30
212;DHT22;16228;48.800;9.002;2023-09-30T15:03:38;22.90;89.90
212;DHT22;16228;48.800;9.002;2023-09-30T15:06:05;22.70;87.40
212;DHT22;16228;48.800;9.002;2023-09-30T15:08:33;22.50;88.10
212;DHT22;16228;48.800;9.002;2023-09-30T15:11:00;22.40;90.70
212;DHT22;16228;48.800;9.002;2023-09-30T15:13:27;22.40;92.40
212;DHT22;16228;48.800;9.002;2023-09-30T15:15:56;22.40;93.10
212;DHT22;16228;48.800;9.002;2023-09-30T15:18:23;22.20;89.90
212;DHT22;16228;48.800;9.002;2023-09-30T15:20:50;22.10;92.80
212;DHT22;16228;48.800;9.002;2023-09-30T15:23:17;22.10;91.30
212;DHT22;16228;48.800;9.002;2023-09-30T15:25:44;22.00;91.50
212;DHT22;16228;48.800;9.002;2023-09-30T15:28:12;22.00;92.00
212;DHT22;16228;48.800;9.002;2023-09-30T15:30:39;21.90;93.20
212;DHT22;16228;48.800;9.002;2023-09-30T15:33:08;21.80;91.90
212;DHT22;16228;48.800;9.002;2023-09-30T15:35:35;21.80;93.10
212;DHT22;16228;48.800;9.002;2023-09-30T15:38:03;21.60;91.60
212;DHT22;16228;48.800;9.002;2023-09-30T15:40:30;21.60;92.30
212;DHT22;16228;48.800;9.002;2023-09-30T15:42:58;21.60;92.40
212;DHT22;16228;48.800;9.002;2023-09-30T15:45:25;21.60;93.30
212;DHT22;16228;48.800;9.002;2023-09-30T15:47:52;21.50;93.10
212;DHT22;16228;48.800;9.002;2023-09-30T15:50:21;21.50;93.80
212;DHT22;16228;48.800;9.002;2023-09-30T15:52:48;21.40;93.60
212;DHT22;16228;48.800;9.002;2023-09-30T15:55:15;21.40;93.50
212;DHT22;16228;48.800;9.002;2023-09-30T15:57:42;21.50;94.30
212;DHT22;16228;48.800;9.002;2023-09-30T16:00:11;21.40;93.30
212;DHT22;16228;48.800;9.002;2023-09-30T16:02:38;21.40;93.60
212;DHT22;16228;48.800;9.002;2023-09-30T16:05:06;21.30;95.00
212;DHT22;16228;48.800;9.002;2023-09-30T16:07:34;21.20;94.50
212;DHT22;16228;48.800;9.002;2023-09-30T16:10:01;21.20;95.60